Time;durP1;ratioP1;P1;durP2;ratioP2;P2;SDS_P1;SDS_P2;PMS_P1;PMS_P2;Temp;Humidity;BMP_temperature;BMP_pressure;BME280_temperature;BME280_humidity;BME280_pressure;Samples;Min_cycle;Max_cycle;Signal;HPM_P1;HPM_P2
2022/06/10 00:00:43;;;;;;;29.20;26.10;;;;;;;17.00;100.00;98891.06;2075155;28;20443;-77
2022/06/10 00:01:44;;;;;;;33.03;27.70;;;;;;;17.02;100.00;98899.56;2074731;28;20458;-77
2022/06/10 00:02:45;;;;;;;34.07;29.03;;;;;;;17.02;100.00;98900.34;2075533;28;20434;-77
2022/06/10 00:03:47;;;;;;;32.30;28.30;;;;;;;17.02;100.00;98896.88;2075724;28;20242;-77
2022/06/10 00:04:48;;;;;;;32.33;28.27;;;;;;;17.02;100.00;98903.06;2074939;28;20443;-77
2022/06/10 00:05:50;;;;;;;36.13;27.60;;;;;;;17.00;100.00;98902.63;2075174;28;20451;-77
2022/06/10 00:06:51;;;;;;;29.37;26.43;;;;;;;17.00;100.00;98901.84;2082315;28;20231;-77
2022/06/10 00:07:53;;;;;;;29.53;26.23;;;;;;;16.97;100.00;98902.53;2074599;28;20493;-77
2022/06/10 00:08:54;;;;;;;31.00;27.70;;;;;;;16.94;100.00;98898.63;2075174;28;20223;-77
2022/06/10 00:09:55;;;;;;;28.23;25.33;;;;;;;17.02;100.00;98904.97;2074980;28;20458;-77
2022/06/10 00:10:57;;;;;;;30.07;26.80;;;;;;;16.99;100.00;98901.06;2074696;28;20220;-77
2022/06/10 00:11:58;;;;;;;28.57;25.23;;;;;;;16.98;100.00;98896.78;2075275;28;20457;-77
2022/06/10 00:13:00;;;;;;;29.20;26.07;;;;;;;17.00;100.00;98904.53;2075256;28;20462;-77
2022/06/10 00:14:00;;;;;;;30.37;26.70;;;;;;;17.01;100.00;98906.88;2075342;28;20199;-77
2022/06/10 00:15:04;;;;;;;30.93;26.97;;;;;;;17.01;100.00;98903.41;2075362;28;20427;-77
2022/06/10 00:16:05;;;;;;;30.80;27.37;;;;;;;17.02;100.00;98894.97;2075149;28;20199;-77
2022/06/10 00:17:07;;;;;;;31.13;27.93;;;;;;;17.02;100.00;98907.66;2082714;28;20434;-77
2022/06/10 00:18:09;;;;;;;30.27;27.27;;;;;;;17.03;100.00;98906.53;2074433;28;21020;-78
2022/06/10 00:19:10;;;;;;;29.07;26.13;;;;;;;17.03;100.00;98907.34;2066714;28;20487;-76
2022/06/10 00:20:14;;;;;;;29.73;26.67;;;;;;;16.98;100.00;98906.78;2074450;28;20446;-77
2022/06/10 00:21:17;;;;;;;29.03;26.23;;;;;;;17.00;100.00;98902.63;2081971;28;20650;-77
2022/06/10 00:22:17;;;;;;;33.10;25.80;;;;;;;17.01;100.00;98903.41;2074898;28;20533;-76
2022/06/10 00:23:19;;;;;;;27.93;25.17;;;;;;;17.06;100.00;98905.88;2074636;28;20431;-77
2022/06/10 00:24:20;;;;;;;29.57;26.67;;;;;;;17.02;100.00;98907.66;2075375;28;20387;-77
2022/06/10 00:25:22;;;;;;;30.13;26.70;;;;;;;17.01;100.00;98906.09;2075362;28;20423;-77
2022/06/10 00:26:23;;;;;;;29.30;26.47;;;;;;;17.01;100.00;98904.19;2075228;28;20216;-77
2022/06/10 00:27:25;;;;;;;30.77;27.63;;;;;;;17.04;100.00;98910.81;2075493;28;20427;-77
2022/06/10 00:28:25;;;;;;;31.33;28.23;;;;;;;17.02;100.00;98908.44;2074404;28;20227;-77
2022/06/10 00:29:27;;;;;;;30.63;27.33;;;;;;;17.04;100.00;98903.53;2074327;28;20467;-77
2022/06/10 00:30:30;;;;;;;34.63;28.77;;;;;;;17.00;100.00;98905.31;2074404;28;20211;-77
2022/06/10 00:31:31;;;;;;;31.73;28.33;;;;;;;17.01;100.00;98898.00;2074602;28;20447;-77
2022/06/10 00:32:32;;;;;;;30.77;27.20;;;;;;;16.97;100.00;98897.13;2083254;28;20447;-76
2022/06/10 00:33:34;;;;;;;31.07;27.73;;;;;;;16.90;100.00;98897.72;2074354;28;20443;-77
2022/06/10 00:34:35;;;;;;;31.27;28.00;;;;;;;16.91;100.00;98904.66;2066457;28;20658;-77
2022/06/10 00:35:37;;;;;;;39.13;29.07;;;;;;;16.95;100.00;98903.66;2074564;28;20454;-77
2022/06/10 00:36:37;;;;;;;31.50;28.20;;;;;;;16.99;100.00;98902.97;2082277;28;20537;-76
2022/06/10 00:37:39;;;;;;;34.03;29.13;;;;;;;16.98;100.00;98904.88;2075064;28;20427;-77
2022/06/10 00:38:40;;;;;;;32.00;28.53;;;;;;;16.98;100.00;98912.19;2075073;28;20279;-77
2022/06/10 00:39:41;;;;;;;31.80;27.93;;;;;;;16.95;100.00;98914.44;2075074;28;20927;-77
2022/06/10 00:40:47;;;;;;;32.90;29.57;;;;;;;16.95;100.00;98905.56;2082623;28;20674;-77
2022/06/10 00:41:48;;;;;;;33.90;28.87;;;;;;;16.92;100.00;98900.84;2082295;28;20413;-77
2022/06/10 00:42:49;;;;;;;36.43;27.67;;;;;;;16.92;100.00;98898.94;2082577;28;20475;-77
2022/06/10 00:43:50;;;;;;;32.33;28.90;;;;;;;16.98;100.00;98896.78;2082689;28;20219;-77
2022/06/10 00:44:54;;;;;;;33.80;29.93;;;;;;;16.94;100.00;98904.78;2074407;28;20447;-77
2022/06/10 00:46:00;;;;;;;34.13;28.43;;;;;;;16.94;100.00;98904.00;2074514;28;20216;-77
2022/06/10 00:47:02;;;;;;;34.43;28.90;;;;;;;16.92;100.00;98904.31;2075129;28;20416;-77
2022/06/10 00:48:03;;;;;;;37.53;28.53;;;;;;;16.87;100.00;98909.97;2074718;28;20439;-77
2022/06/10 00:49:12;;;;;;;35.87;29.53;;;;;;;16.86;100.00;98913.78;2073873;28;20447;-77
2022/06/10 00:50:26;;;;;;;32.00;28.47;;;;;;;16.85;100.00;98914.91;2074499;28;20412;-77
2022/06/10 00:51:36;;;;;;;32.70;29.20;;;;;;;16.84;100.00;98915.25;2074488;28;20454;-77
2022/06/10 00:52:39;;;;;;;32.20;27.83;;;;;;;16.86;100.00;98924.56;2074300;28;20467;-77
2022/06/10 00:53:44;;;;;;;36.50;29.63;;;;;;;16.85;100.00;98917.63;2066950;28;20534;-77
2022/06/10 00:54:46;;;;;;;34.80;29.03;;;;;;;16.85;100.00;98925.69;2067075;28;20459;-77
2022/06/10 00:55:50;;;;;;;35.17;28.73;;;;;;;16.86;100.00;98929.19;2082912;28;20999;-77
2022/06/10 00:56:54;;;;;;;32.00;28.60;;;;;;;16.82;100.00;98918.28;2081611;28;20457;-77
2022/06/10 00:58:00;;;;;;;36.03;30.40;;;;;;;16.79;100.00;98932.44;2074303;28;20797;-77
2022/06/10 00:59:06;;;;;;;38.47;29.10;;;;;;;16.82;100.00;98931.75;2074937;28;20821;-77
2022/06/10 01:00:12;;;;;;;34.10;30.07;;;;;;;16.78;100.00;98932.78;2074977;28;20979;-77
2022/06/10 01:01:15;;;;;;;36.33;29.13;;;;;;;16.79;100.00;98940.53;2074549;28;20443;-77
2022/06/10 01:02:21;;;;;;;36.40;29.90;;;;;;;16.78;100.00;98936.25;2074305;28;20467;-77
2022/06/10 01:03:22;;;;;;;34.27;29.07;;;;;;;16.78;100.00;98930.88;2074111;28;20494;-77
2022/06/10 01:04:24;;;;;;;35.07;29.37;;;;;;;16.74;100.00;98935.34;2074693;28;20427;-77
2022/06/10 01:05:27;;;;;;;33.87;29.60;;;;;;;16.77;100.00;98939.31;2074892;28;20208;-77
2022/06/10 01:06:28;;;;;;;36.90;30.93;;;;;;;16.70;100.00;98931.00;2074213;28;20471;-77
2022/06/10 01:07:31;;;;;;;40.97;30.63;;;;;;;16.70;100.00;98934.47;2082374;28;20498;-77
2022/06/10 01:08:33;;;;;;;34.90;28.17;;;;;;;16.73;100.00;98933.78;2090154;28;20429;-77
2022/06/10 01:09:34;;;;;;;35.93;28.40;;;;;;;16.73;100.00;98931.09;2075267;28;20432;-77
2022/06/10 01:10:42;;;;;;;32.47;28.97;;;;;;;16.74;100.00;98926.50;2074957;28;20566;-77
2022/06/10 01:11:57;;;;;;;31.73;28.33;;;;;;;16.75;100.00;98933.44;2075588;28;20411;-76
2022/06/10 01:13:09;;;;;;;30.70;27.60;;;;;;;16.70;100.00;98923.69;2074665;28;20443;-77
2022/06/10 01:14:22;;;;;;;32.77;27.77;;;;;;;16.70;100.00;98929.09;2074667;28;20408;-77
2022/06/10 01:15:36;;;;;;;36.17;29.17;;;;;;;16.66;100.00;98930.84;2074978;28;20898;-77
2022/06/10 01:16:47;;;;;;;34.80;28.07;;;;;;;16.69;100.00;98924.84;2074954;28;20434;-77
2022/06/10 01:17:57;;;;;;;31.90;28.20;;;;;;;16.69;100.00;98935.59;2074836;28;20407;-77
2022/06/10 01:19:05;;;;;;;34.20;29.17;;;;;;;16.65;100.00;98931.97;2074910;28;20894;-77
2022/06/10 01:20:19;;;;;;;34.03;29.00;;;;;;;16.64;100.00;98933.09;2074941;28;20466;-77
2022/06/10 01:21:52;;;;;;;32.17;28.67;;;;;;;16.63;100.00;98926.16;2074510;28;20821;-77
2022/06/10 01:23:26;;;;;;;32.73;28.90;;;;;;;16.60;100.00;98927.63;2049627;28;20516;-77
2022/06/10 01:25:11;;;;;;;34.67;28.03;;;;;;;16.59;100.00;98917.97;2074656;28;20431;-77
2022/06/10 01:26:28;;;;;;;32.77;29.10;;;;;;;16.52;100.00;98920.44;2074676;28;20415;-76
2022/06/10 01:28:02;;;;;;;32.90;28.73;;;;;;;16.52;100.00;98915.06;2074686;28;20403;-76
2022/06/10 01:29:45;;;;;;;33.33;28.73;;;;;;;16.48;100.00;98922.22;2059241;28;20440;-76
2022/06/10 01:31:11;;;;;;;34.87;28.83;;;;;;;16.40;100.00;98915.06;2023981;28;20805;-77
2022/06/10 01:32:17;;;;;;;37.93;29.83;;;;;;;16.44;100.00;98920.56;2074830;28;20480;-76
2022/06/10 01:33:23;;;;;;;34.47;29.93;;;;;;;16.40;100.00;98923.91;2074886;28;20403;-77
2022/06/10 01:34:28;;;;;;;33.40;29.80;;;;;;;16.45;100.00;98927.50;2082396;28;20498;-76
2022/06/10 01:35:37;;;;;;;39.63;30.07;;;;;;;16.42;100.00;98922.78;2081842;28;20414;-76
2022/06/10 01:36:46;;;;;;;34.50;28.23;;;;;;;16.37;100.00;98934.59;2073825;28;20500;-76
2022/06/10 01:37:57;;;;;;;36.33;29.40;;;;;;;16.32;100.00;98929.41;2074290;28;20451;-76
2022/06/10 01:39:04;;;;;;;34.07;29.67;;;;;;;16.31;100.00;98925.94;2074730;28;20402;-77
2022/06/10 01:40:09;;;;;;;36.50;29.57;;;;;;;16.31;100.00;98928.63;2073847;28;20443;-76
2022/06/10 01:41:15;;;;;;;36.17;30.43;;;;;;;16.32;100.00;98932.88;2083039;28;20439;-77
2022/06/10 01:42:24;;;;;;;35.63;29.57;;;;;;;16.29;100.00;98930.88;2089152;28;20505;-77
2022/06/10 01:43:38;;;;;;;33.13;28.50;;;;;;;16.30;100.00;98923.59;2075353;28;20403;-76
2022/06/10 01:44:49;;;;;;;34.20;29.27;;;;;;;16.26;100.00;98928.88;2073909;28;20501;-76
2022/06/10 01:45:53;;;;;;;33.67;29.17;;;;;;;16.25;100.00;98923.81;2074496;28;20207;-76
2022/06/10 01:47:03;;;;;;;33.60;29.60;;;;;;;16.23;100.00;98934.91;2074758;28;20518;-77
2022/06/10 01:48:05;;;;;;;40.47;31.13;;;;;;;16.21;100.00;98936.38;2074595;28;20430;-77
2022/06/10 01:49:11;;;;;;;33.70;29.50;;;;;;;16.18;100.00;98935.16;2074765;28;20538;-77
2022/06/10 01:50:13;;;;;;;40.33;30.47;;;;;;;16.16;100.00;98948.16;2066185;28;20487;-76
2022/06/10 01:51:19;;;;;;;34.47;29.67;;;;;;;16.15;100.00;98933.09;2065863;28;20483;-76
2022/06/10 01:52:25;;;;;;;34.23;29.97;;;;;;;16.17;100.00;98935.50;2074092;28;20982;-76
2022/06/10 01:53:29;;;;;;;37.73;30.27;;;;;;;16.18;100.00;98940.53;2074895;28;20866;-77
2022/06/10 01:54:36;;;;;;;37.10;29.63;;;;;;;16.17;100.00;98930.88;2073752;28;20443;-76
2022/06/10 01:55:39;;;;;;;33.70;29.20;;;;;;;16.18;100.00;98932.47;2074097;28;20435;-76
2022/06/10 01:56:44;;;;;;;35.73;29.37;;;;;;;16.22;100.00;98933.34;2074717;28;20438;-77
2022/06/10 01:57:49;;;;;;;35.70;29.42;;;;;;;16.21;100.00;98925.59;2090170;28;20477;-77
2022/06/10 01:58:55;;;;;;;34.00;29.80;;;;;;;16.18;100.00;98926.28;2089603;28;20573;-77
2022/06/10 02:00:01;;;;;;;39.50;29.73;;;;;;;16.22;100.00;98941.41;2074202;28;20510;-76
2022/06/10 02:01:07;;;;;;;33.93;29.67;;;;;;;16.21;100.00;98937.16;2074548;28;20458;-77
2022/06/10 02:02:11;;;;;;;41.10;29.80;;;;;;;16.18;100.00;98940.53;2082352;28;20469;-77
2022/06/10 02:03:16;;;;;;;33.73;29.23;;;;;;;16.22;100.00;98948.72;2081702;28;20474;-77
2022/06/10 02:04:18;;;;;;;34.13;29.53;;;;;;;16.23;100.00;98944.91;2082805;28;20457;-76
2022/06/10 02:05:22;;;;;;;36.77;30.37;;;;;;;16.22;100.00;98954.09;2081725;28;20428;-76
2022/06/10 02:06:27;;;;;;;34.33;29.03;;;;;;;16.20;100.00;98954.44;2074007;28;21002;-76
2022/06/10 02:07:33;;;;;;;34.90;29.37;;;;;;;16.21;100.00;98953.31;2074368;28;20404;-77
2022/06/10 02:08:37;;;;;;;33.83;29.00;;;;;;;16.22;100.00;98952.19;2074388;28;20962;-77
2022/06/10 02:09:41;;;;;;;33.22;29.20;;;;;;;16.19;100.00;98950.19;2074473;28;20434;-77
2022/06/10 02:10:47;;;;;;;34.07;28.97;;;;;;;16.19;100.00;98950.19;2073629;28;20191;-77
2022/06/10 02:11:51;;;;;;;38.53;29.50;;;;;;;16.15;100.00;98949.25;2073980;28;20447;-77
2022/06/10 02:12:55;;;;;;;35.47;29.13;;;;;;;16.18;100.00;98956.69;2074561;28;20428;-76
2022/06/10 02:13:59;;;;;;;35.17;29.60;;;;;;;16.18;100.00;98958.59;2074410;28;20442;-77
2022/06/10 02:15:03;;;;;;;32.23;28.73;;;;;;;16.16;100.00;98950.84;2074343;28;20594;-77
2022/06/10 02:16:08;;;;;;;38.23;29.87;;;;;;;16.18;100.00;98962.06;2074344;28;20530;-77
2022/06/10 02:17:11;;;;;;;38.27;30.23;;;;;;;16.15;100.00;98961.94;2074278;28;20434;-77
2022/06/10 02:18:15;;;;;;;34.40;30.23;;;;;;;16.20;100.00;98949.06;2073571;28;20455;-76
2022/06/10 02:19:23;;;;;;;35.47;29.80;;;;;;;16.20;100.00;98959.81;2073801;28;20471;-77
2022/06/10 02:20:26;;;;;;;35.87;30.73;;;;;;;16.20;100.00;98949.06;2074518;28;20443;-77
2022/06/10 02:21:31;;;;;;;36.67;30.20;;;;;;;16.24;100.00;98957.22;2073072;28;20455;-76
2022/06/10 02:22:35;;;;;;;39.80;31.00;;;;;;;16.22;100.00;98962.94;2073691;28;20956;-77
2022/06/10 02:23:40;;;;;;;34.50;30.80;;;;;;;16.24;100.00;98963.41;2073524;28;20958;-77
2022/06/10 02:24:43;;;;;;;38.97;31.20;;;;;;;16.25;100.00;98961.53;2066037;28;20507;-77
2022/06/10 02:25:46;;;;;;;39.47;32.33;;;;;;;16.28;100.00;98971.59;2073659;28;20431;-77
2022/06/10 02:26:48;;;;;;;46.27;34.33;;;;;;;16.28;100.00;98967.00;2074210;28;20427;-76
2022/06/10 02:27:52;;;;;;;46.57;34.07;;;;;;;16.27;100.00;98965.44;2074379;28;20435;-77
2022/06/10 02:28:55;;;;;;;45.87;34.87;;;;;;;16.23;100.00;98967.22;2089722;28;20536;-77
2022/06/10 02:30:00;;;;;;;47.27;35.37;;;;;;;16.26;100.00;98965.78;2089737;28;20449;-77
2022/06/10 02:31:04;;;;;;;49.83;36.13;;;;;;;16.23;100.00;98961.81;2074134;28;20646;-76
2022/06/10 02:32:06;;;;;;;47.33;34.77;;;;;;;16.26;100.00;98966.56;2074221;28;20838;-77
2022/06/10 02:33:09;;;;;;;49.70;34.23;;;;;;;16.22;100.00;98962.94;2073556;28;20455;-77
2022/06/10 02:34:12;;;;;;;51.13;33.87;;;;;;;16.23;100.00;98963.75;2073607;28;20502;-77
2022/06/10 02:35:13;;;;;;;46.13;35.33;;;;;;;16.21;100.00;98966.00;2073430;28;20845;-77
2022/06/10 02:36:19;;;;;;;46.23;33.37;;;;;;;16.18;100.00;98970.16;2065623;28;20962;-76
2022/06/10 02:37:22;;;;;;;44.43;34.67;;;;;;;16.22;100.00;98971.03;2074011;28;20973;-77
2022/06/10 02:38:28;;;;;;;43.80;35.10;;;;;;;16.20;100.00;98973.28;2081559;28;21003;-77
2022/06/10 02:39:32;;;;;;;40.63;32.73;;;;;;;16.22;100.00;98979.09;2073682;28;20471;-77
2022/06/10 02:40:37;;;;;;;44.10;33.97;;;;;;;16.21;100.00;98974.84;2065812;28;20440;-77
2022/06/10 02:41:43;;;;;;;49.70;36.07;;;;;;;16.18;100.00;98975.53;2073884;28;20939;-77
2022/06/10 02:42:52;;;;;;;45.50;35.57;;;;;;;16.19;100.00;98971.72;2074273;28;20400;-77
2022/06/10 02:43:56;;;;;;;47.67;35.47;;;;;;;16.18;100.00;98986.28;2073461;28;20436;-76
2022/06/10 02:45:03;;;;;;;44.33;34.27;;;;;;;16.19;100.00;98979.00;2066045;28;20530;-76
2022/06/10 02:46:09;;;;;;;52.70;35.80;;;;;;;16.23;100.00;98977.97;2066140;28;20483;-77
2022/06/10 02:47:18;;;;;;;47.87;35.60;;;;;;;16.26;100.00;98985.41;2066041;28;20443;-77
2022/06/10 02:48:24;;;;;;;52.23;35.83;;;;;;;16.18;100.00;98986.28;2073628;28;20447;-77
2022/06/10 02:49:26;;;;;;;45.70;36.67;;;;;;;16.24;100.00;98987.63;2074771;28;20396;-77
2022/06/10 02:50:26;;;;;;;53.17;36.63;;;;;;;16.20;100.00;98994.81;2089756;28;20860;-76
2022/06/10 02:51:28;;;;;;;49.23;36.67;;;;;;;16.17;100.00;98992.81;2089740;28;20468;-77
2022/06/10 02:52:33;;;;;;;54.97;37.20;;;;;;;16.18;100.00;98991.69;2072990;28;20267;-77
2022/06/10 02:53:34;;;;;;;46.83;37.03;;;;;;;16.16;100.00;98999.31;2073770;28;20823;-77
2022/06/10 02:54:39;;;;;;;54.92;37.92;;;;;;;16.20;100.00;99000.19;2074306;28;20455;-76
2022/06/10 02:55:40;;;;;;;55.85;37.50;;;;;;;16.20;100.00;98994.81;2073321;28;20657;-76
2022/06/10 02:56:41;;;;;;;53.58;37.08;;;;;;;16.23;100.00;98999.53;2073541;28;20275;-77
2022/06/10 03:01:49;;;;;;;55.50;38.17;;;;;;;16.26;100.00;99003.47;2074161;28;20458;-77
2022/06/10 03:02:54;;;;;;;54.57;37.87;;;;;;;16.31;100.00;99001.31;2073341;28;20531;-77
2022/06/10 03:04:12;;;;;;;50.77;36.87;;;;;;;16.31;100.00;99001.31;2065710;28;20788;-77
2022/06/10 03:05:22;;;;;;;55.53;37.57;;;;;;;16.32;100.00;99002.91;2073749;28;20407;-77
2022/06/10 03:06:27;;;;;;;55.87;37.87;;;;;;;16.31;100.00;99006.72;2073822;28;20856;-77
2022/06/10 03:07:44;;;;;;;53.33;38.67;;;;;;;16.34;100.00;99005.28;2073398;28;20444;-77
2022/06/10 03:08:47;;;;;;;53.83;38.80;;;;;;;16.34;100.00;99006.06;2073435;28;20508;-77
2022/06/10 03:10:03;;;;;;;53.25;39.35;;;;;;;16.37;100.00;99010.75;2065525;28;20217;-77
2022/06/10 03:11:11;;;;;;;58.45;40.70;;;;;;;16.37;100.00;99016.16;2073778;28;20176;-76
2022/06/10 03:12:18;;;;;;;59.15;39.72;;;;;;;16.40;100.00;99020.06;2075573;28;20181;-77
2022/06/10 03:13:30;;;;;;;63.67;40.08;;;;;;;16.43;100.00;99019.41;2075916;28;20226;-77
2022/06/10 03:14:43;;;;;;;60.92;41.38;;;;;;;16.45;100.00;99019.09;2075964;28;20568;-77
2022/06/10 03:16:01;;;;;;;58.75;40.55;;;;;;;16.39;100.00;99021.19;2075999;28;20630;-77
2022/06/10 03:17:07;;;;;;;62.25;40.20;;;;;;;16.42;100.00;99025.13;2075911;28;20180;-77
2022/06/10 03:18:13;;;;;;;60.17;39.97;;;;;;;16.44;100.00;99031.75;2075971;28;20177;-77
2022/06/10 03:19:30;;;;;;;68.13;40.80;;;;;;;16.47;100.00;99027.59;2075906;28;20410;-77
2022/06/10 03:20:35;;;;;;;61.87;40.63;;;;;;;16.47;100.00;99033.78;2076397;28;20415;-77
2022/06/10 03:21:45;;;;;;;64.55;42.28;;;;;;;16.48;100.00;99031.88;2074540;28;20459;-77
2022/06/10 03:22:59;;;;;;;65.83;40.63;;;;;;;16.52;100.00;99035.47;2068574;28;20714;-77
2022/06/10 03:24:08;;;;;;;66.23;42.50;;;;;;;16.44;100.00;99030.97;2085010;28;20871;-76
2022/06/10 03:25:18;;;;;;;61.25;39.55;;;;;;;16.48;100.00;99038.03;2082399;28;20442;-77
2022/06/10 03:26:26;;;;;;;63.05;40.85;;;;;;;16.50;100.00;99029.63;2075260;28;20177;-76
2022/06/10 03:27:31;;;;;;;65.25;42.97;;;;;;;16.49;100.00;99036.13;2075032;28;20199;-77
2022/06/10 03:28:37;;;;;;;64.33;41.90;;;;;;;16.52;100.00;99038.94;2075379;28;20168;-76
2022/06/10 03:29:47;;;;;;;71.47;42.90;;;;;;;16.50;100.00;99030.41;2075382;28;20498;-77
2022/06/10 03:30:52;;;;;;;66.43;41.55;;;;;;;16.50;100.00;99035.00;2076119;28;20866;-77
2022/06/10 03:31:58;;;;;;;65.07;42.00;;;;;;;16.50;100.00;99040.38;2075621;28;20193;-77
2022/06/10 03:33:05;;;;;;;65.85;42.00;;;;;;;16.56;100.00;99036.38;2074886;28;20435;-76
2022/06/10 03:34:13;;;;;;;65.40;42.10;;;;;;;16.56;100.00;99039.06;2075158;28;20613;-76
2022/06/10 03:35:18;;;;;;;61.73;41.50;;;;;;;16.55;100.00;99037.50;2074925;28;20407;-77
2022/06/10 03:36:23;;;;;;;64.70;43.35;;;;;;;16.50;100.00;99040.38;2075746;28;20469;-77
2022/06/10 03:37:23;;;;;;;66.57;42.50;;;;;;;16.52;100.00;99049.72;2075618;28;20530;-77
2022/06/10 03:38:25;;;;;;;66.00;43.73;;;;;;;16.57;100.00;99048.72;2074928;28;20552;-77
2022/06/10 03:39:27;;;;;;;62.30;41.53;;;;;;;16.65;100.00;99053.19;2075428;28;20208;-76
2022/06/10 03:40:29;;;;;;;59.23;39.73;;;;;;;16.61;100.00;99046.94;2075585;28;20427;-77
2022/06/10 03:41:31;;;;;;;58.17;40.07;;;;;;;16.63;100.00;99047.38;2076084;28;20502;-77
2022/06/10 03:42:33;;;;;;;64.87;42.17;;;;;;;16.72;100.00;99058.84;2074815;28;20439;-77
2022/06/10 03:43:36;;;;;;;59.97;40.63;;;;;;;16.72;100.00;99058.84;2066641;28;20558;-77
2022/06/10 03:44:38;;;;;;;58.43;40.47;;;;;;;16.72;100.00;99058.06;2075313;28;20447;-77
2022/06/10 03:45:40;;;;;;;64.50;40.47;;;;;;;16.68;100.00;99055.25;2075476;28;20439;-77
2022/06/10 03:46:46;;;;;;;64.90;41.53;;;;;;;16.72;100.00;99058.84;2075543;28;20431;-77
2022/06/10 03:47:47;;;;;;;57.47;40.33;;;;;;;16.69;100.00;99054.16;2075396;28;20196;-77
2022/06/10 03:48:50;;;;;;;67.10;41.80;;;;;;;16.74;100.00;99062.00;2074806;28;20455;-77
2022/06/10 03:49:57;;;;;;;63.30;42.20;;;;;;;16.64;100.00;99057.81;2075033;28;20253;-77
2022/06/10 03:51:00;;;;;;;56.93;41.53;;;;;;;16.70;100.00;99053.03;2074409;28;20549;-76
2022/06/10 03:52:01;;;;;;;55.20;39.70;;;;;;;16.73;100.00;99068.50;2074968;28;20848;-76
2022/06/10 03:53:04;;;;;;;58.17;41.03;;;;;;;16.72;100.00;99053.47;2075634;28;20498;-76
2022/06/10 03:54:05;;;;;;;54.13;39.97;;;;;;;16.80;100.00;99054.47;2075572;28;20526;-77
2022/06/10 03:55:08;;;;;;;62.53;39.30;;;;;;;16.82;100.00;99055.72;2075136;28;20966;-76
2022/06/10 03:56:10;;;;;;;58.97;38.60;;;;;;;16.85;100.00;99056.94;2074953;28;20514;-76
2022/06/10 03:57:11;;;;;;;58.03;41.10;;;;;;;16.86;100.00;99058.53;2074682;28;20451;-76
2022/06/10 03:58:13;;;;;;;58.97;40.60;;;;;;;16.93;100.00;99053.34;2074739;28;20435;-76
2022/06/10 03:59:14;;;;;;;54.13;40.67;;;;;;;17.00;100.00;99064.34;2075348;28;20220;-77
2022/06/10 04:00:19;;;;;;;53.83;40.43;;;;;;;17.05;100.00;99063.34;2075716;28;20427;-76
2022/06/10 04:01:19;;;;;;;56.63;39.50;;;;;;;17.12;100.00;99060.88;2074580;28;20236;-77
2022/06/10 04:02:21;;;;;;;55.60;39.93;;;;;;;17.20;100.00;99066.13;2067344;28;20447;-77
2022/06/10 04:03:22;;;;;;;59.80;40.67;;;;;;;17.18;100.00;99062.97;2074694;28;20209;-77
2022/06/10 04:04:23;;;;;;;54.07;39.60;;;;;;;17.20;100.00;99076.94;2075330;28;20423;-77
2022/06/10 04:05:24;;;;;;;53.17;38.67;;;;;;;17.19;100.00;99072.63;2075664;28;20212;-77
2022/06/10 04:06:27;;;;;;;51.10;38.23;;;;;;;17.23;100.00;99061.97;2074984;28;20444;-76
2022/06/10 04:07:27;;;;;;;56.23;40.27;;;;;;;17.31;100.00;99058.38;2075764;28;20234;-77
2022/06/10 04:08:29;;;;;;;54.43;39.83;;;;;;;17.35;100.00;99064.63;2075326;28;20427;-77
2022/06/10 04:09:31;;;;;;;52.47;38.57;;;;;;;17.40;100.00;99072.50;2075255;28;20275;-77
2022/06/10 04:10:32;;;;;;;53.13;39.50;;;;;;;17.46;100.00;99065.75;2075542;28;20433;-76
2022/06/10 04:11:33;;;;;;;56.73;39.57;;;;;;;17.48;100.00;99068.09;2075285;28;20426;-78
2022/06/10 04:12:34;;;;;;;55.13;38.70;;;;;;;17.45;100.00;99064.16;2075255;28;20224;-77
2022/06/10 04:13:35;;;;;;;52.07;40.07;;;;;;;17.46;100.00;99070.34;2075265;28;20450;-77
2022/06/10 04:14:36;;;;;;;50.27;39.33;;;;;;;17.43;100.00;99065.63;2082793;28;20192;-77
2022/06/10 04:15:38;;;;;;;48.77;38.73;;;;;;;17.45;100.00;99066.84;2083126;28;20438;-76
2022/06/10 04:16:39;;;;;;;54.30;40.57;;;;;;;17.55;100.00;99062.09;2066432;28;20204;-77
2022/06/10 04:17:40;;;;;;;48.70;40.37;;;;;;;17.61;100.00;99066.94;2066623;28;20982;-77
2022/06/10 04:18:42;;;;;;;53.10;41.40;;;;;;;17.63;100.00;99074.69;2074981;28;20428;-77
2022/06/10 04:19:43;;;;;;;50.73;40.37;;;;;;;17.69;100.00;99066.00;2074569;28;20466;-76
2022/06/10 04:20:44;;;;;;;52.33;41.77;;;;;;;17.78;100.00;99073.97;2066561;28;20479;-77
2022/06/10 04:21:47;;;;;;;50.73;40.07;;;;;;;17.81;100.00;99076.00;2074311;28;20236;-77
2022/06/10 04:22:48;;;;;;;46.47;38.03;;;;;;;17.75;100.00;99077.38;2075178;28;20427;-77
2022/06/10 04:23:50;;;;;;;49.37;39.63;;;;;;;17.69;100.00;99076.00;2075193;28;20487;-77
2022/06/10 04:24:50;;;;;;;42.37;37.27;;;;;;;17.65;100.00;99085.94;2074539;28;20447;-77
2022/06/10 04:25:52;;;;;;;46.67;38.50;;;;;;;17.56;100.00;99087.97;2066320;28;20450;-77
2022/06/10 04:26:53;;;;;;;48.03;38.63;;;;;;;17.57;100.00;99068.75;2066415;28;20197;-77
2022/06/10 04:27:55;;;;;;;49.30;38.97;;;;;;;17.55;100.00;99078.28;2074696;28;20902;-77
2022/06/10 04:28:55;;;;;;;43.10;38.23;;;;;;;17.56;100.00;99087.97;2074962;28;20231;-77
2022/06/10 04:29:58;;;;;;;51.00;38.80;;;;;;;17.53;100.00;99089.44;2075354;28;20447;-77
2022/06/10 04:30:59;;;;;;;52.67;39.40;;;;;;;17.52;100.00;99075.16;2075132;28;20197;-76
2022/06/10 04:32:00;;;;;;;46.80;38.07;;;;;;;17.57;100.00;99092.25;2074352;28;20538;-77
2022/06/10 04:33:01;;;;;;;48.03;38.67;;;;;;;17.55;100.00;99091.78;2074614;28;20287;-77
2022/06/10 04:34:03;;;;;;;48.47;39.47;;;;;;;17.53;100.00;99092.13;2082592;28;20438;-77
2022/06/10 04:35:04;;;;;;;41.77;36.17;;;;;;;17.42;100.00;99094.50;2082733;28;20451;-76
2022/06/10 04:36:07;;;;;;;40.10;35.70;;;;;;;17.38;100.00;99090.16;2073835;28;20534;-77
2022/06/10 04:37:10;;;;;;;39.50;35.27;;;;;;;17.46;100.00;99095.44;2066985;28;20451;-77
2022/06/10 04:38:13;;;;;;;39.30;33.60;;;;;;;17.39;100.00;99103.28;2074518;28;20455;-77
2022/06/10 04:39:14;;;;;;;44.23;35.13;;;;;;;17.43;100.00;99093.38;2075930;28;20458;-77
2022/06/10 04:40:18;;;;;;;42.50;36.07;;;;;;;17.48;100.00;99093.16;2074327;28;20439;-76
2022/06/10 04:41:20;;;;;;;44.53;37.57;;;;;;;17.50;100.00;99099.00;2074486;28;20192;-77
2022/06/10 04:42:20;;;;;;;42.27;36.23;;;;;;;17.45;100.00;99099.22;2075539;28;20435;-76
2022/06/10 04:43:22;;;;;;;42.80;37.17;;;;;;;17.49;100.00;99096.66;2074957;28;20459;-77
2022/06/10 04:44:23;;;;;;;42.30;35.90;;;;;;;17.48;100.00;99095.06;2075642;28;20608;-77
2022/06/10 04:45:27;;;;;;;43.63;35.83;;;;;;;17.48;100.00;99108.56;2075092;28;20435;-76
2022/06/10 04:46:34;;;;;;;42.43;35.33;;;;;;;17.46;100.00;99103.50;2074344;28;20209;-76
2022/06/10 04:47:34;;;;;;;42.60;36.67;;;;;;;17.53;100.00;99101.00;2067757;28;20447;-76
2022/06/10 04:48:36;;;;;;;44.43;36.13;;;;;;;17.57;100.00;99108.44;2074459;28;20447;-77
2022/06/10 04:49:37;;;;;;;41.37;35.47;;;;;;;17.61;100.00;99104.69;2075466;28;20200;-76
2022/06/10 04:50:40;;;;;;;43.97;35.47;;;;;;;17.62;100.00;99100.88;2074300;28;20428;-77
2022/06/10 04:51:42;;;;;;;37.47;33.37;;;;;;;17.64;100.00;99106.72;2074118;28;20228;-76
2022/06/10 04:52:44;;;;;;;42.57;34.57;;;;;;;17.66;100.00;99111.78;2074368;28;20542;-76
2022/06/10 04:53:45;;;;;;;44.27;36.70;;;;;;;17.69;100.00;99111.09;2074267;28;20534;-76
2022/06/10 04:54:46;;;;;;;45.13;36.07;;;;;;;17.70;100.00;99113.47;2074309;28;20497;-76
2022/06/10 04:55:48;;;;;;;44.20;36.60;;;;;;;17.74;100.00;99108.97;2074208;28;20490;-76
2022/06/10 04:56:49;;;;;;;45.10;36.17;;;;;;;17.77;100.00;99112.91;2066223;28;20683;-76
2022/06/10 04:57:50;;;;;;;43.00;36.83;;;;;;;17.81;100.00;99113.81;2066198;28;20460;-76
2022/06/10 04:58:51;;;;;;;47.13;37.20;;;;;;;17.84;100.00;99113.09;2066362;28;20456;-76